Terminal Aerodrome Forecast
Issued by NWS Nashville, TN

Home | Current Version | Previous Version | Text Only | Print | Product List | Glossary On
Versions: 1 2 3 4 5 6 7 8 9 10 11 12 13 14 15 16 17 18 19 20 21 22 23 24 25 26 27 28 29 30
000
FTUS44 KOHX 181700
TAFCSV
TAF
KCSV 181720Z 1818/1918 03004KT P6SM SCT060 SCT250
     FM190100 00000KT P6SM SKC
     FM191000 00000KT 4SM BR SKC
     FM191400 12004KT P6SM SCT030=

USA.gov is the U.S. government's official web portal to all federal, state and local government web resources and services.